createdAt,value
2023-06-07T14:48:47.749Z,14.60
2023-06-07T14:49:47.612Z,13.90
2023-06-07T14:50:47.590Z,15.30
2023-06-07T14:51:47.632Z,17.10
2023-06-07T14:52:47.552Z,13.50
2023-06-07T14:53:47.585Z,15.90
2023-06-07T14:55:10.336Z,16.90
2023-06-07T14:55:47.533Z,14.60
2023-06-07T14:56:50.751Z,14.80
2023-06-07T14:57:47.539Z,17.90
2023-06-07T14:58:47.530Z,19.20
2023-06-07T14:59:47.545Z,20.40
2023-06-07T15:01:08.742Z,18.60
2023-06-07T15:01:47.548Z,15.30
2023-06-07T15:02:47.483Z,18.90
2023-06-07T15:09:00.674Z,17.80
2023-06-07T15:10:01.701Z,17.50
2023-06-07T15:11:01.634Z,17.70
2023-06-07T15:12:01.634Z,15.00
2023-06-07T15:13:01.633Z,14.00
2023-06-07T15:14:01.609Z,15.70
2023-06-07T15:15:01.605Z,18.30
2023-06-07T15:16:01.622Z,14.80
2023-06-07T15:17:01.746Z,17.90
2023-06-07T15:18:02.492Z,15.70
2023-06-07T15:19:01.550Z,13.80
2023-06-07T15:20:01.572Z,18.10
2023-06-07T15:21:01.553Z,16.80
2023-06-07T15:22:01.517Z,12.40
2023-06-07T15:23:01.524Z,17.50
2023-06-07T15:24:01.533Z,14.60
2023-06-07T15:25:01.483Z,9.50
2023-06-07T15:26:02.228Z,16.70
2023-06-07T15:27:01.485Z,17.10
2023-06-07T15:28:01.417Z,16.10
2023-06-07T15:29:01.468Z,13.50
2023-06-07T15:30:01.402Z,12.60
2023-06-07T15:31:01.445Z,13.00
2023-06-07T15:32:01.405Z,12.80
2023-06-07T15:33:01.479Z,14.90
2023-06-07T15:34:01.370Z,13.80
2023-06-07T15:35:24.568Z,12.10
2023-06-07T15:36:01.381Z,5.10
2023-06-07T15:37:01.329Z,6.10
2023-06-07T15:38:05.433Z,7.90
2023-06-07T15:39:01.330Z,6.30
2023-06-07T15:40:01.370Z,7.50
2023-06-07T15:41:01.275Z,7.50
2023-06-07T15:42:23.483Z,6.90
2023-06-07T15:43:01.327Z,6.60
2023-06-07T15:57:37.464Z,4.90
2023-06-07T15:58:00.641Z,4.60
2023-06-07T15:59:04.351Z,6.80
2023-06-07T16:00:03.205Z,4.10
2023-06-07T16:01:00.662Z,4.50
2023-06-07T16:02:33.235Z,6.40
2023-06-07T16:03:00.648Z,7.50
2023-06-07T16:04:00.684Z,5.20
2023-06-07T16:05:00.564Z,7.30
2023-06-07T16:06:00.552Z,5.60
2023-06-07T16:21:55.902Z,32.00
2023-06-07T16:22:52.083Z,8.30
2023-06-07T16:23:52.145Z,9.80
2023-06-07T16:24:52.029Z,8.80
2023-06-07T16:25:52.075Z,11.10
2023-06-07T16:26:52.153Z,6.50
2023-06-07T16:27:52.026Z,9.20
2023-06-07T16:28:52.037Z,6.30
2023-06-07T16:29:52.032Z,9.50
2023-06-07T16:30:52.082Z,9.20
2023-06-07T16:31:51.989Z,9.00
2023-06-07T16:32:52.702Z,8.20
2023-06-07T16:33:52.008Z,7.70
2023-06-07T16:34:51.939Z,8.90
2023-06-07T16:35:51.945Z,9.90
2023-06-07T16:36:51.917Z,7.80
2023-06-07T16:37:51.883Z,7.80
2023-06-07T16:38:51.971Z,7.80
2023-06-07T16:39:51.922Z,6.50
2023-06-07T16:40:51.951Z,7.20
2023-06-07T16:41:51.836Z,5.40
2023-06-07T16:42:51.861Z,6.40
2023-06-07T16:43:51.860Z,6.80
2023-06-07T16:44:51.864Z,9.70
2023-06-07T16:45:51.890Z,7.20
2023-06-07T16:46:51.992Z,9.10
2023-06-07T16:47:51.800Z,9.00
2023-06-07T16:48:51.794Z,9.50
2023-06-07T16:49:51.760Z,9.40
2023-06-07T16:50:51.791Z,11.10
2023-06-07T16:51:51.763Z,7.90
2023-06-07T16:52:51.846Z,8.00
2023-06-07T16:53:51.736Z,12.40
2023-06-07T16:54:51.738Z,9.50
2023-06-07T16:55:52.656Z,9.50
2023-06-07T16:56:51.750Z,11.80
2023-06-07T16:57:51.702Z,8.90
2023-06-07T16:58:51.688Z,8.80
2023-06-07T16:59:51.658Z,7.80
2023-06-07T17:00:51.664Z,7.80
2023-06-07T17:01:51.678Z,10.10
2023-06-07T17:02:51.713Z,11.30
2023-06-07T17:03:51.697Z,12.60
2023-06-07T17:04:51.617Z,8.30
2023-06-07T17:05:51.581Z,6.60
2023-06-07T17:06:51.601Z,13.90
2023-06-07T17:07:52.132Z,9.30
2023-06-07T17:08:51.635Z,10.70
2023-06-07T17:09:51.546Z,8.20
2023-06-07T17:10:51.559Z,11.10
2023-06-07T17:11:51.527Z,12.40
2023-06-07T17:12:51.504Z,9.80
2023-06-07T17:13:51.512Z,6.10
2023-06-07T17:14:51.551Z,10.50
2023-06-07T17:15:51.568Z,7.30
2023-06-07T17:16:51.527Z,7.20
2023-06-07T17:17:51.454Z,12.50
2023-06-07T17:18:51.456Z,7.90
2023-06-07T17:19:51.422Z,12.90
2023-06-07T17:20:51.465Z,12.00
2023-06-07T17:21:51.395Z,11.20
2023-06-07T17:22:51.383Z,7.60
2023-06-07T17:23:51.420Z,8.20
2023-06-07T17:24:51.406Z,9.30
2023-06-07T17:25:52.146Z,5.80
2023-06-07T17:26:51.412Z,9.50
2023-06-07T17:27:51.345Z,7.10
2023-06-07T17:28:52.161Z,9.70
2023-06-07T17:29:51.338Z,11.10
2023-06-07T17:30:52.024Z,8.20
2023-06-07T17:31:51.343Z,10.20
2023-06-07T17:32:51.365Z,8.50
2023-06-07T17:33:51.284Z,9.90
2023-06-07T17:34:51.283Z,10.20
2023-06-07T17:35:51.270Z,14.90
2023-06-07T17:36:51.265Z,10.30
2023-06-07T17:37:51.208Z,8.40
2023-06-07T17:38:51.447Z,10.80
2023-06-07T17:39:51.193Z,11.10
2023-06-07T17:40:51.212Z,12.20
2023-06-07T17:41:51.168Z,10.10
2023-06-07T17:42:51.205Z,13.40
2023-06-07T17:43:51.180Z,9.90
2023-06-07T17:44:51.198Z,9.70
2023-06-07T17:45:51.222Z,9.70
2023-06-07T17:46:51.314Z,10.80
2023-06-07T17:47:51.207Z,9.90
2023-06-07T17:48:51.200Z,9.20
2023-06-07T17:49:51.095Z,8.40
2023-06-07T17:50:51.105Z,9.90
2023-06-07T17:51:51.053Z,7.00
2023-06-07T17:52:51.122Z,8.90
2023-06-07T17:53:51.475Z,8.80
2023-06-07T17:54:51.051Z,10.10
2023-06-07T17:55:51.053Z,6.90
2023-06-07T17:56:51.082Z,7.90
2023-06-07T17:57:51.048Z,10.30
2023-06-07T17:58:51.050Z,6.20
2023-06-07T17:59:50.997Z,8.00
2023-06-07T18:00:51.030Z,6.20
2023-06-07T18:01:51.176Z,9.40
2023-06-07T18:02:51.083Z,4.00
2023-06-07T18:03:51.006Z,5.20
2023-06-07T18:04:50.971Z,4.90
2023-06-07T18:05:50.914Z,11.90
2023-06-07T18:06:50.923Z,11.00
2023-06-07T18:07:51.027Z,9.80
2023-06-07T18:08:50.926Z,6.30
2023-06-07T18:09:50.866Z,7.50
2023-06-07T18:10:50.902Z,8.70
2023-06-07T18:11:50.849Z,9.40
2023-06-07T18:12:50.986Z,10.50
2023-06-07T18:13:50.787Z,13.40
2023-06-07T18:14:50.872Z,9.00
2023-06-07T18:15:50.810Z,7.10
2023-06-07T18:16:52.839Z,14.20
2023-06-07T18:17:54.248Z,6.00
2023-06-07T18:18:51.546Z,6.20
2023-06-07T18:19:50.721Z,8.00
2023-06-07T18:20:50.817Z,5.30
2023-06-07T18:21:50.744Z,7.70
2023-06-07T18:22:50.762Z,8.60
2023-06-07T18:23:51.513Z,5.90
2023-06-07T18:24:50.735Z,5.60
2023-06-07T18:25:50.731Z,10.20
2023-06-07T18:26:50.734Z,10.20
2023-06-07T18:27:50.671Z,7.20
2023-06-07T18:28:50.683Z,6.80
2023-06-07T18:29:50.652Z,7.90
2023-06-07T18:30:50.673Z,7.00
2023-06-07T18:31:50.609Z,12.00
2023-06-07T18:32:50.710Z,12.50
2023-06-07T18:33:50.828Z,14.70
2023-06-07T18:34:50.629Z,9.70
2023-06-07T18:35:50.600Z,6.70
2023-06-07T18:36:50.622Z,6.20
2023-06-07T18:37:50.539Z,9.30
2023-06-07T18:38:50.599Z,7.40
2023-06-07T18:39:50.548Z,8.90
2023-06-07T18:40:50.558Z,4.40
2023-06-07T18:41:51.222Z,4.60
2023-06-07T18:42:50.561Z,6.90
2023-06-07T18:43:50.550Z,7.10
2023-06-07T18:44:50.766Z,8.30
2023-06-07T18:45:50.562Z,6.00
2023-06-07T18:46:50.593Z,8.20
2023-06-07T18:47:50.532Z,5.10
2023-06-07T18:48:50.488Z,4.80
2023-06-07T18:49:50.444Z,8.60
2023-06-07T18:50:50.582Z,4.50
2023-06-07T18:51:50.605Z,4.60
2023-06-07T18:52:53.799Z,8.30
2023-06-07T18:53:51.309Z,7.00
2023-06-07T18:54:52.026Z,5.30
2023-06-07T18:55:51.749Z,6.80
2023-06-07T18:56:53.058Z,6.80
2023-06-07T18:57:53.237Z,9.80
2023-06-07T18:58:52.572Z,10.30
2023-06-07T18:59:51.430Z,7.10
2023-06-07T19:00:55.165Z,7.50
2023-06-07T19:01:52.532Z,7.10
2023-06-07T19:02:51.517Z,7.90
2023-06-07T19:03:51.306Z,6.20
2023-06-07T19:04:51.249Z,7.10
2023-06-07T19:05:50.296Z,5.30
2023-06-07T19:06:52.124Z,13.10
2023-06-07T19:07:50.251Z,12.70
2023-06-07T19:08:50.262Z,5.90
2023-06-07T19:09:50.205Z,8.40
2023-06-07T19:10:50.219Z,12.30
2023-06-07T19:11:50.187Z,8.30
2023-06-07T19:12:50.237Z,9.60
2023-06-07T19:13:50.832Z,11.90
2023-06-07T19:14:50.158Z,14.60
2023-06-07T19:15:50.162Z,9.80
2023-06-07T19:16:50.253Z,9.00
2023-06-07T19:17:50.124Z,8.70
2023-06-07T19:18:50.136Z,8.00
2023-06-07T19:19:50.115Z,6.20
2023-06-07T19:20:50.141Z,9.50
2023-06-07T19:21:50.080Z,7.40
2023-06-07T19:22:50.756Z,6.30
2023-06-07T19:23:50.108Z,8.50
2023-06-07T19:24:50.057Z,8.40
2023-06-07T19:25:50.038Z,10.90
2023-06-07T19:26:50.077Z,11.00
2023-06-07T19:27:50.006Z,8.40
2023-06-07T19:28:50.119Z,12.50
2023-06-07T19:29:50.034Z,5.60
2023-06-07T19:30:50.024Z,7.90
2023-06-07T19:31:49.967Z,9.50
2023-06-07T19:32:51.191Z,14.40
2023-06-07T19:33:50.292Z,9.10
2023-06-07T19:34:50.195Z,11.40
2023-06-07T19:35:49.997Z,13.10
2023-06-07T19:36:49.984Z,9.40
2023-06-07T19:37:49.909Z,9.10
2023-06-07T19:38:50.000Z,11.60
2023-06-07T19:39:49.863Z,23.00
2023-06-07T19:40:49.962Z,14.30
2023-06-07T19:41:49.851Z,15.40
2023-06-07T19:42:49.873Z,13.60
2023-06-07T19:43:50.030Z,15.50
2023-06-07T19:44:49.877Z,13.30
2023-06-07T19:45:49.804Z,11.40
2023-06-07T19:46:49.927Z,12.10
2023-06-07T19:47:49.838Z,10.10
2023-06-07T19:48:49.815Z,9.70
2023-06-07T19:49:49.763Z,6.50
2023-06-07T19:50:50.746Z,10.30
2023-06-07T19:51:49.743Z,11.30
2023-06-07T19:52:49.815Z,6.80
2023-06-07T19:53:49.703Z,8.30
2023-06-07T19:54:50.781Z,5.20
2023-06-07T19:55:49.733Z,7.30
2023-06-07T19:56:49.771Z,5.70
2023-06-07T19:57:52.567Z,10.10
2023-06-07T19:58:49.754Z,7.00
2023-06-07T19:59:49.642Z,8.50
2023-06-07T20:00:50.457Z,5.30
2023-06-07T20:01:50.324Z,9.00
2023-06-07T20:02:49.777Z,10.50
2023-06-07T20:03:49.644Z,4.60
2023-06-07T20:04:49.672Z,9.80
2023-06-07T20:05:49.606Z,7.90
2023-06-07T20:06:49.617Z,14.70
2023-06-07T20:07:49.661Z,8.60
2023-06-07T20:08:49.609Z,15.20
2023-06-07T20:09:49.521Z,9.40
2023-06-07T20:10:49.613Z,13.80
2023-06-07T20:11:49.527Z,24.50
2023-06-07T20:12:49.528Z,32.30
2023-06-07T20:13:49.472Z,25.60
2023-06-07T20:14:49.513Z,41.20
2023-06-07T20:15:49.469Z,86.50
2023-06-07T20:16:49.478Z,46.60
2023-06-07T20:17:49.464Z,33.80
2023-06-07T20:18:49.483Z,37.20
2023-06-07T20:19:49.417Z,34.60
2023-06-07T20:20:49.510Z,22.60
2023-06-07T20:21:49.361Z,20.60
2023-06-07T20:22:49.423Z,18.00
2023-06-07T20:23:49.411Z,20.50
2023-06-07T20:24:50.304Z,24.80
2023-06-07T20:25:50.403Z,19.40
2023-06-07T20:26:49.392Z,20.10
2023-06-07T20:27:49.275Z,21.60
2023-06-07T20:28:49.348Z,21.90
2023-06-07T20:29:49.296Z,19.90
2023-06-07T20:30:49.302Z,17.00
2023-06-07T20:31:49.316Z,17.20
2023-06-07T20:32:49.314Z,18.00
2023-06-07T20:33:49.218Z,16.10
2023-06-07T20:34:49.280Z,22.20
2023-06-07T20:35:49.228Z,23.10
2023-06-07T20:36:49.282Z,23.90
2023-06-07T20:37:49.222Z,19.00
2023-06-07T20:38:49.307Z,21.00
2023-06-07T20:39:49.165Z,21.20
2023-06-07T20:40:49.224Z,21.10
2023-06-07T20:41:49.172Z,21.00
2023-06-07T20:42:49.850Z,22.80
2023-06-07T20:43:49.171Z,22.10
2023-06-07T20:44:53.411Z,23.90
2023-06-07T20:45:49.209Z,19.80
2023-06-07T20:46:49.160Z,24.20
2023-06-07T20:47:49.171Z,17.70
2023-06-07T20:48:49.111Z,29.10
2023-06-07T20:49:49.113Z,20.90
2023-06-07T20:50:49.077Z,25.80
2023-06-07T20:51:49.100Z,22.50
2023-06-07T20:52:49.022Z,26.20
2023-06-07T20:53:49.042Z,26.30
2023-06-07T20:54:49.018Z,22.10
2023-06-07T20:55:49.763Z,30.80
2023-06-07T20:56:49.021Z,26.70
2023-06-07T20:57:49.007Z,21.70
2023-06-07T20:58:48.965Z,24.30
2023-06-07T20:59:48.996Z,21.70
2023-06-07T21:00:48.937Z,29.80
2023-06-07T21:01:49.032Z,28.90
2023-06-07T21:02:49.037Z,26.30
2023-06-07T21:03:51.760Z,21.50
2023-06-07T21:04:48.880Z,30.00
2023-06-07T21:05:48.911Z,20.80
2023-06-07T21:06:48.893Z,19.00
2023-06-07T21:07:48.889Z,19.60
2023-06-07T21:08:48.897Z,20.90
2023-06-07T21:09:48.898Z,18.70
2023-06-07T21:10:48.850Z,17.10
2023-06-07T21:11:49.755Z,20.50
2023-06-07T21:12:48.857Z,23.00
2023-06-07T21:13:48.827Z,17.70
2023-06-07T21:14:48.805Z,17.80
2023-06-07T21:15:48.883Z,21.50
2023-06-07T21:16:48.862Z,20.00
2023-06-07T21:24:43.336Z,25.20
2023-06-07T21:25:44.337Z,24.60
2023-06-07T21:26:44.301Z,21.40
2023-06-07T21:27:45.000Z,19.30
2023-06-07T21:28:44.330Z,18.30
2023-06-07T21:29:44.311Z,17.00
2023-06-07T21:30:44.265Z,16.80
2023-06-07T21:31:45.067Z,18.10
2023-06-07T21:32:44.349Z,17.90
2023-06-07T21:35:02.378Z,20.30
2023-06-07T21:36:03.288Z,16.30
2023-06-07T21:37:03.330Z,18.10
2023-06-07T21:38:03.376Z,21.70
2023-06-07T21:39:03.314Z,21.10
2023-06-07T21:40:03.582Z,19.10
2023-06-07T21:41:03.289Z,19.80
2023-06-07T21:42:03.260Z,20.20
2023-06-07T21:43:03.244Z,17.00
2023-06-07T21:44:03.252Z,17.60
2023-06-07T21:45:03.256Z,16.40
2023-06-07T21:46:03.252Z,20.00
2023-06-07T21:47:03.258Z,18.20
2023-06-07T21:48:03.260Z,21.30
2023-06-07T21:49:03.257Z,19.90
2023-06-07T21:50:03.280Z,16.90
2023-06-07T21:51:03.173Z,17.20
2023-06-07T21:52:03.238Z,12.60
2023-06-07T21:53:03.119Z,20.80
2023-06-07T21:54:03.136Z,18.90
2023-06-07T21:55:03.138Z,18.50
2023-06-07T21:56:03.106Z,18.80
2023-06-07T21:57:03.117Z,18.30
2023-06-07T21:58:03.110Z,14.90
2023-06-07T21:59:03.109Z,14.30
2023-06-07T22:00:03.112Z,18.80
2023-06-07T22:01:03.295Z,19.90
2023-06-07T22:02:03.026Z,19.50
2023-06-07T22:03:03.911Z,18.90
2023-06-07T22:04:03.084Z,23.20
2023-06-07T22:05:03.000Z,13.00
2023-06-07T22:06:02.993Z,17.60
2023-06-07T22:07:02.989Z,21.40
2023-06-07T22:08:02.990Z,21.30
2023-06-07T22:09:06.045Z,21.80
2023-06-07T22:10:03.459Z,19.40
2023-06-07T22:11:02.914Z,19.60
2023-06-07T22:12:02.955Z,16.80
2023-06-07T22:13:02.957Z,42.50
2023-06-07T22:14:02.963Z,71.60
2023-06-07T22:15:02.905Z,49.00
2023-06-07T22:16:02.961Z,39.90
2023-06-07T22:17:02.985Z,29.40
2023-06-07T22:18:02.918Z,29.80
2023-06-07T22:19:02.888Z,26.50
2023-06-07T22:20:03.084Z,23.00
2023-06-07T22:21:02.835Z,18.90
2023-06-07T22:22:02.888Z,17.70
2023-06-07T22:23:02.826Z,17.00
2023-06-07T22:24:02.893Z,23.90
2023-06-07T22:25:02.782Z,20.40
2023-06-07T22:26:02.826Z,26.10
2023-06-07T22:27:02.725Z,21.00
2023-06-07T22:28:02.772Z,20.60
2023-06-07T22:29:02.726Z,20.60
2023-06-07T22:30:02.792Z,19.70
2023-06-07T22:31:03.443Z,24.30
2023-06-07T22:32:02.736Z,23.40
2023-06-07T22:33:02.702Z,21.90
2023-06-07T22:34:02.738Z,21.20
2023-06-07T22:35:02.639Z,17.60
2023-06-07T22:36:02.699Z,24.30
2023-06-07T22:37:02.651Z,23.30
2023-06-07T22:38:02.679Z,22.60
2023-06-07T22:39:02.643Z,22.10
2023-06-07T22:40:02.716Z,22.30
2023-06-07T22:41:02.630Z,25.30
2023-06-07T22:42:02.632Z,21.60
2023-06-07T22:43:02.553Z,22.20
2023-06-07T22:44:02.626Z,23.50
2023-06-07T22:45:02.528Z,25.90
2023-06-07T22:46:02.630Z,22.50
2023-06-07T22:47:02.590Z,24.50
2023-06-07T22:48:02.751Z,25.90
2023-06-07T22:49:02.510Z,31.40
2023-06-07T22:50:02.779Z,22.60
2023-06-07T22:51:02.477Z,25.10
2023-06-07T22:52:04.637Z,24.10
2023-06-07T22:53:02.451Z,34.10
2023-06-07T22:54:03.198Z,23.20
2023-06-07T22:55:03.221Z,25.40
2023-06-07T22:56:02.487Z,28.60
2023-06-07T22:57:02.398Z,29.40
2023-06-07T22:58:02.680Z,29.50
2023-06-07T22:59:02.375Z,30.90
2023-06-07T23:00:02.421Z,25.70
2023-06-07T23:01:02.371Z,23.70
2023-06-07T23:02:02.409Z,28.00
2023-06-07T23:03:02.458Z,25.20
2023-06-07T23:04:02.581Z,27.90
2023-06-07T23:05:02.325Z,24.90
2023-06-07T23:06:02.351Z,25.00
2023-06-07T23:07:02.289Z,28.90
2023-06-07T23:08:02.354Z,29.70
2023-06-07T23:09:02.371Z,25.80
2023-06-07T23:10:02.802Z,23.10
2023-06-07T23:11:02.246Z,18.80
2023-06-07T23:12:02.309Z,20.20
2023-06-07T23:13:02.888Z,19.40
2023-06-07T23:14:02.307Z,18.90
2023-06-07T23:15:02.280Z,21.70
2023-06-07T23:16:02.272Z,19.30
2023-06-07T23:17:02.184Z,21.20
2023-06-07T23:18:02.291Z,21.00
2023-06-07T23:19:02.152Z,19.30
2023-06-07T23:20:02.985Z,20.10
2023-06-07T23:21:02.257Z,21.50
2023-06-07T23:22:02.183Z,21.40
2023-06-07T23:23:02.772Z,20.80
2023-06-07T23:24:02.162Z,20.00
2023-06-07T23:25:02.125Z,18.10
2023-06-07T23:26:02.151Z,18.00
2023-06-07T23:27:02.493Z,18.60
2023-06-07T23:28:02.816Z,20.30
2023-06-07T23:29:03.755Z,19.10
2023-06-07T23:30:02.866Z,19.30
2023-06-07T23:31:02.313Z,18.80
2023-06-07T23:32:02.533Z,18.00
2023-06-07T23:33:02.476Z,19.50
2023-06-07T23:34:02.469Z,18.60
2023-06-07T23:35:02.130Z,21.60
2023-06-07T23:36:02.440Z,19.00
2023-06-07T23:37:01.976Z,18.70
2023-06-07T23:38:02.245Z,18.20
2023-06-07T23:39:01.998Z,19.90
2023-06-07T23:40:03.626Z,27.10
2023-06-07T23:41:01.942Z,19.80
2023-06-07T23:42:01.999Z,19.60
2023-06-07T23:43:02.600Z,21.00
2023-06-07T23:44:02.085Z,23.20
2023-06-07T23:45:02.591Z,19.80
2023-06-07T23:46:02.496Z,19.40
2023-06-07T23:47:23.649Z,22.80
2023-06-07T23:48:03.946Z,19.10
2023-06-07T23:49:01.908Z,17.70
2023-06-07T23:50:01.884Z,22.10
2023-06-07T23:51:01.894Z,18.10
2023-06-07T23:52:01.832Z,20.50
2023-06-07T23:53:01.867Z,24.00
2023-06-07T23:54:01.797Z,17.70
2023-06-07T23:55:01.835Z,19.70
2023-06-07T23:56:01.804Z,22.90
2023-06-07T23:57:01.784Z,19.40
2023-06-07T23:58:02.538Z,17.20
2023-06-07T23:59:01.777Z,20.90
